Time;durP1;ratioP1;P1;durP2;ratioP2;P2;SDS_P1;SDS_P2;PMS_P1;PMS_P2;Temp;Humidity;BMP_temperature;BMP_pressure;BME280_temperature;BME280_humidity;BME280_pressure;Samples;Min_cycle;Max_cycle;Signal;HPM_P1;HPM_P2
2021/06/16 00:02:04;;;;;;;;;0.00;0.00;;;;;26.51;46.31;100990.06;5124746;27;46211;-60
2021/06/16 00:04:30;;;;;;;;;0.00;0.00;;;;;26.48;45.87;100974.31;5113577;27;45423;-61
2021/06/16 00:06:55;;;;;;;;;0.00;0.00;;;;;26.51;46.18;100973.91;5122404;27;45294;-59
2021/06/16 00:09:22;;;;;;;;;0.00;0.00;;;;;26.51;46.17;100979.28;5125392;27;45530;-60
2021/06/16 00:11:47;;;;;;;;;0.00;0.00;;;;;26.53;46.24;100980.72;5120650;27;46155;-60
2021/06/16 00:14:13;;;;;;;;;0.00;0.00;;;;;26.52;46.16;100976.38;5115224;27;45258;-60
2021/06/16 00:16:39;;;;;;;;;0.00;0.00;;;;;26.54;45.71;100973.44;5125170;27;45638;-60
2021/06/16 00:19:04;;;;;;;;;0.00;0.00;;;;;26.56;46.25;100972.19;5124913;27;45599;-60
2021/06/16 00:21:30;;;;;;;;;0.00;0.00;;;;;26.59;45.78;100970.97;5124887;27;46434;-59
2021/06/16 00:23:55;;;;;;;;;0.00;0.00;;;;;26.60;45.45;100969.91;5124992;27;45197;-59
2021/06/16 00:26:20;;;;;;;;;0.00;0.00;;;;;26.62;45.24;100970.50;5124260;27;45259;-60
2021/06/16 00:28:46;;;;;;;;;0.00;0.00;;;;;26.62;45.40;100961.63;5125192;27;45337;-60
2021/06/16 00:31:11;;;;;;;;;0.00;0.00;;;;;26.64;45.11;100971.13;5124475;27;45485;-59
2021/06/16 00:33:37;;;;;;;;;0.00;0.00;;;;;26.63;44.92;100960.56;5124765;27;45336;-59
2021/06/16 00:36:03;;;;;;;;;0.00;0.00;;;;;26.65;45.04;100961.16;5124922;27;45396;-59
2021/06/16 00:38:28;;;;;;;;;0.00;0.00;;;;;26.63;45.65;100961.41;5124941;27;45282;-60
2021/06/16 00:40:55;;;;;;;;;0.00;0.00;;;;;26.63;45.66;100960.56;5124582;27;46497;-60
2021/06/16 00:43:20;;;;;;;;;0.00;0.00;;;;;26.62;45.68;100958.91;5124613;27;45255;-60
2021/06/16 00:45:46;;;;;;;;;0.00;0.00;;;;;26.60;45.04;100959.94;5124241;27;45976;-60
2021/06/16 00:48:11;;;;;;;;;0.00;0.00;;;;;26.58;45.44;100956.66;5124802;27;45340;-60
2021/06/16 00:50:39;;;;;;;;;0.00;0.00;;;;;26.58;44.98;100956.66;5124409;27;45376;-60
2021/06/16 00:53:06;;;;;;;;;0.00;0.00;;;;;26.58;45.55;100959.34;5124397;27;45241;-59
2021/06/16 00:55:32;;;;;;;;;0.00;0.00;;;;;26.54;45.28;100947.34;5124542;27;45571;-60
2021/06/16 00:57:58;;;;;;;;;0.00;0.00;;;;;26.53;45.42;100948.38;5124277;27;45320;-60
2021/06/16 01:00:32;;;;;;;;;0.00;0.00;;;;;26.50;45.78;100945.28;5105637;27;46960;-60
2021/06/16 01:03:27;;;;;;;;;0.00;0.00;;;;;26.48;45.60;100945.53;5123599;27;45363;-60
2021/06/16 01:06:19;;;;;;;;;0.00;0.00;;;;;26.43;45.83;100942.66;5103716;27;45324;-60
2021/06/16 01:09:06;;;;;;;;;0.00;0.00;;;;;26.42;46.17;100941.03;5104006;27;45468;-61
2021/06/16 01:11:36;;;;;;;;;0.00;0.00;;;;;26.38;46.43;100937.94;5117345;27;45349;-60
2021/06/16 01:14:25;;;;;;;;;0.00;0.00;;;;;26.33;46.06;100943.16;5112534;27;45259;-60
2021/06/16 01:16:56;;;;;;;;;0.00;0.00;;;;;26.31;46.01;100929.09;5124280;27;45560;-60
2021/06/16 01:19:51;;;;;;;;;0.00;0.00;;;;;26.30;46.57;100922.03;5124047;27;45421;-60
2021/06/16 01:22:26;;;;;;;;;0.00;0.00;;;;;26.28;46.92;100926.00;5124020;27;45365;-60
2021/06/16 01:24:54;;;;;;;;;0.00;0.00;;;;;26.26;46.69;100922.69;5123481;27;45306;-60
2021/06/16 01:27:21;;;;;;;;;0.00;0.00;;;;;26.21;46.13;100923.34;5123946;27;45257;-59
2021/06/16 01:29:48;;;;;;;;;0.00;0.00;;;;;26.16;46.90;100920.50;5124159;27;45492;-59
2021/06/16 01:32:13;;;;;;;;;0.00;0.00;;;;;26.13;46.88;100915.53;5105177;27;47257;-60
2021/06/16 01:34:39;;;;;;;;;0.00;0.00;;;;;26.11;47.32;100918.47;5123325;27;45412;-60
2021/06/16 01:37:05;;;;;;;;;0.00;0.00;;;;;26.09;47.10;100917.88;5104010;27;45334;-60
2021/06/16 01:39:34;;;;;;;;;0.00;0.00;;;;;26.06;47.54;100918.28;5124053;27;45393;-60
2021/06/16 01:42:06;;;;;;;;;0.00;0.00;;;;;26.03;46.87;100917.91;5122871;27;47777;-59
2021/06/16 01:44:34;;;;;;;;;0.00;0.00;;;;;25.99;47.19;100912.13;5123234;27;45389;-59
2021/06/16 01:47:00;;;;;;;;;0.00;0.00;;;;;25.96;48.10;100916.06;5123508;27;45366;-60
2021/06/16 01:49:28;;;;;;;;;0.00;0.00;;;;;25.91;47.38;100910.50;5123474;27;45564;-59
2021/06/16 01:51:54;;;;;;;;;0.00;0.00;;;;;25.92;48.13;100914.03;5123433;27;46495;-60
2021/06/16 01:54:21;;;;;;;;;0.00;0.00;;;;;25.89;48.24;100917.16;5123178;27;45407;-60
2021/06/16 01:56:49;;;;;;;;;0.00;0.00;;;;;25.87;48.35;100911.94;5123847;27;45311;-59
2021/06/16 01:59:16;;;;;;;;;0.00;0.00;;;;;25.83;48.42;100902.69;5123513;27;45187;-59
2021/06/16 02:01:42;;;;;;;;;0.00;0.00;;;;;25.82;48.25;100902.88;5123337;27;46090;-60
2021/06/16 02:04:08;;;;;;;;;0.00;0.00;;;;;25.79;48.39;100902.28;5114643;27;45290;-59
2021/06/16 02:06:39;;;;;;;;;0.00;0.00;;;;;25.77;48.30;100906.22;5103096;27;45325;-59
2021/06/16 02:09:06;;;;;;;;;0.00;0.00;;;;;25.73;48.28;100905.00;5112075;27;45520;-59
2021/06/16 02:11:35;;;;;;;;;0.00;0.00;;;;;25.71;48.49;100897.13;5120493;27;45423;-60
2021/06/16 02:14:04;;;;;;;;;0.00;0.00;;;;;25.68;49.14;100889.50;5112639;27;45382;-59
2021/06/16 02:16:39;;;;;;;;;0.00;0.00;;;;;25.66;49.25;100894.28;5119112;27;45282;-59
2021/06/16 02:19:14;;;;;;;;;0.00;0.00;;;;;25.64;48.87;100885.59;5113521;27;45349;-60
2021/06/16 02:21:41;;;;;;;;;0.00;0.00;;;;;25.62;48.69;100882.31;5122968;27;46390;-60
2021/06/16 02:24:09;;;;;;;;;0.00;0.00;;;;;25.57;49.06;100880.25;5122807;27;45286;-59
2021/06/16 02:26:36;;;;;;;;;0.00;0.00;;;;;25.55;48.95;100887.72;5123081;27;45413;-59
2021/06/16 02:29:09;;;;;;;;;0.00;0.00;;;;;25.53;49.52;100886.28;5104528;27;45456;-59
2021/06/16 02:31:36;;;;;;;;;0.00;0.00;;;;;25.49;49.00;100880.50;5122726;27;46394;-59
2021/06/16 02:34:03;;;;;;;;;0.00;0.00;;;;;25.47;49.43;100882.56;5122512;27;45196;-59
2021/06/16 02:36:30;;;;;;;;;0.00;0.00;;;;;25.44;49.97;100874.09;5102638;27;45199;-59
2021/06/16 02:39:05;;;;;;;;;0.00;0.00;;;;;25.40;49.46;100875.56;5116604;27;45258;-59
2021/06/16 02:41:31;;;;;;;;;0.00;0.00;;;;;25.37;49.41;100877.66;5122896;27;45400;-60
2021/06/16 02:43:58;;;;;;;;;0.00;0.00;;;;;25.33;49.68;100862.16;5122529;27;45415;-59
2021/06/16 02:46:25;;;;;;;;;0.00;0.00;;;;;25.31;49.66;100864.22;5123019;27;45275;-59
2021/06/16 02:48:52;;;;;;;;;0.00;0.00;;;;;25.28;49.70;100862.81;5122238;27;45425;-59
2021/06/16 02:51:18;;;;;;;;;0.00;0.00;;;;;25.25;49.63;100857.00;5122705;27;45276;-60
2021/06/16 02:53:45;;;;;;;;;0.00;0.00;;;;;25.23;50.09;100864.50;5106426;27;45305;-59
2021/06/16 02:56:12;;;;;;;;;0.00;0.00;;;;;25.21;50.00;100855.81;5101914;27;45223;-60
2021/06/16 02:58:40;;;;;;;;;0.00;0.00;;;;;25.21;50.32;100858.50;5116476;27;45291;-59
2021/06/16 03:01:08;;;;;;;;;0.00;0.00;;;;;25.18;50.46;100854.31;5113462;27;46616;-59
2021/06/16 03:03:35;;;;;;;;;0.00;0.00;;;;;25.17;49.93;100858.88;5109187;27;45283;-59
2021/06/16 03:06:02;;;;;;;;;0.00;0.00;;;;;25.15;49.95;100855.59;5111069;27;45337;-59
2021/06/16 03:08:29;;;;;;;;;0.00;0.00;;;;;25.12;50.25;100856.03;5105998;27;45315;-59
2021/06/16 03:10:57;;;;;;;;;0.00;0.00;;;;;25.07;50.72;100858.50;5111940;27;47144;-59
2021/06/16 03:13:27;;;;;;;;;0.00;0.00;;;;;25.05;50.71;100855.19;5108354;27;45311;-60
2021/06/16 03:15:54;;;;;;;;;0.00;0.00;;;;;25.03;50.78;100859.97;5122289;27;45463;-60
2021/06/16 03:18:21;;;;;;;;;0.00;0.00;;;;;25.01;51.15;100858.53;5121987;27;45558;-60
2021/06/16 03:20:47;;;;;;;;;0.00;0.00;;;;;24.99;51.15;100856.06;5122221;27;46312;-60
2021/06/16 03:23:13;;;;;;;;;0.00;0.00;;;;;24.97;50.90;100852.78;5122051;27;45400;-60
2021/06/16 03:25:39;;;;;;;;;0.00;0.00;;;;;24.95;51.04;100857.53;5122172;27;45216;-59
2021/06/16 03:28:08;;;;;;;;;0.00;0.00;;;;;24.95;51.05;100861.03;5122229;27;45237;-59
2021/06/16 03:30:34;;;;;;;;;0.00;0.00;;;;;24.95;51.19;100854.84;5122150;27;45522;-60
2021/06/16 03:33:01;;;;;;;;;0.00;0.00;;;;;24.92;51.00;100866.00;5121767;27;45338;-59
2021/06/16 03:35:27;;;;;;;;;0.00;0.00;;;;;24.91;51.29;100859.81;5122341;27;45286;-60
2021/06/16 03:37:54;;;;;;;;;0.00;0.00;;;;;24.90;51.72;100860.84;5122023;27;45347;-60
2021/06/16 03:40:24;;;;;;;;;0.00;0.00;;;;;24.89;51.27;100863.75;5122091;27;45485;-60
2021/06/16 03:42:50;;;;;;;;;0.00;0.00;;;;;24.86;51.00;100854.25;5121898;27;45341;-59
2021/06/16 03:45:17;;;;;;;;;0.00;0.00;;;;;24.86;51.63;100856.09;5103664;27;45357;-60
2021/06/16 03:47:44;;;;;;;;;0.00;0.00;;;;;24.83;51.54;100856.50;5121946;27;45568;-60
2021/06/16 03:50:15;;;;;;;;;0.00;0.00;;;;;24.83;51.87;100861.88;5121853;27;46476;-59
2021/06/16 03:52:42;;;;;;;;;0.00;0.00;;;;;24.79;51.64;100860.66;5121045;27;45440;-59
2021/06/16 03:55:09;;;;;;;;;0.00;0.00;;;;;24.72;51.58;100863.34;5121958;27;45336;-59
2021/06/16 03:57:35;;;;;;;;;0.00;0.00;;;;;24.68;52.43;100859.44;5122217;27;45341;-60
2021/06/16 04:00:01;;;;;;;;;0.00;0.00;;;;;24.61;51.96;100853.25;5122092;27;45595;-60
2021/06/16 04:02:27;;;;;;;;;5.25;5.25;;;;;24.61;51.42;100854.06;5124743;27;45411;-61
2021/06/16 04:04:53;;;;;;;;;0.00;0.00;;;;;24.60;51.84;100854.28;5111504;27;45265;-60
2021/06/16 04:07:22;;;;;;;;;0.00;0.00;;;;;24.60;52.17;100852.44;5104814;27;45375;-59
2021/06/16 04:09:52;;;;;;;;;0.00;0.00;;;;;24.58;52.78;100848.28;5118393;27;46359;-60
2021/06/16 04:12:18;;;;;;;;;0.00;0.00;;;;;24.52;52.40;100847.28;5117174;27;45513;-60
2021/06/16 04:14:45;;;;;;;;;0.00;0.00;;;;;24.54;52.20;100845.22;5119209;27;45269;-60
2021/06/16 04:17:10;;;;;;;;;0.00;0.00;;;;;24.55;52.54;100852.22;5125173;27;45472;-60
2021/06/16 04:19:36;;;;;;;;;0.00;0.00;;;;;24.53;52.32;100844.38;5124797;27;45252;-60
2021/06/16 04:22:01;;;;;;;;;0.00;0.00;;;;;24.56;52.05;100852.03;5124921;27;45341;-59
2021/06/16 04:24:27;;;;;;;;;0.00;0.00;;;;;24.59;52.47;100858.00;5124995;27;45238;-59
2021/06/16 04:26:52;;;;;;;;;0.00;0.00;;;;;24.62;52.27;100857.59;5125153;27;45234;-60
2021/06/16 04:29:17;;;;;;;;;0.00;0.00;;;;;24.64;52.34;100859.00;5124729;27;45340;-60
2021/06/16 04:31:43;;;;;;;;;0.00;0.00;;;;;24.59;52.51;100845.41;5124774;27;45210;-61
2021/06/16 04:34:08;;;;;;;;;0.00;0.00;;;;;24.58;52.16;100841.09;5123929;27;45230;-61
2021/06/16 04:36:34;;;;;;;;;0.00;0.00;;;;;24.58;52.38;100842.91;5124651;27;45171;-60
2021/06/16 04:38:59;;;;;;;;;0.00;0.00;;;;;24.62;52.20;100842.31;5124506;27;45851;-60
2021/06/16 04:41:25;;;;;;;;;0.00;0.00;;;;;24.64;51.83;100831.34;5124805;27;45155;-60
2021/06/16 04:43:51;;;;;;;;;0.00;0.00;;;;;24.68;52.36;100837.94;5124476;27;45229;-60
2021/06/16 04:46:16;;;;;;;;;0.00;0.00;;;;;24.70;51.90;100830.50;5124520;27;45148;-60
2021/06/16 04:48:42;;;;;;;;;0.00;0.00;;;;;24.73;51.73;100830.06;5123585;27;45464;-60
2021/06/16 04:51:08;;;;;;;;;0.00;0.00;;;;;24.70;52.28;100834.00;5124270;27;45286;-60
2021/06/16 04:53:34;;;;;;;;;0.00;0.00;;;;;24.69;51.75;100834.25;5124025;27;45541;-61
2021/06/16 04:56:00;;;;;;;;;0.00;0.00;;;;;24.66;51.61;100823.91;5124418;27;45350;-60
2021/06/16 04:58:26;;;;;;;;;0.00;0.00;;;;;24.62;52.39;100828.03;5124115;27;46393;-61
2021/06/16 05:00:52;;;;;;;;;0.00;0.00;;;;;24.59;52.45;100815.03;5124107;27;45467;-61
2021/06/16 05:03:17;;;;;;;;;0.00;0.00;;;;;24.61;52.29;100823.72;5122839;27;45340;-60
2021/06/16 05:05:43;;;;;;;;;0.00;0.00;;;;;24.62;52.28;100814.63;5111702;27;45204;-60
2021/06/16 05:08:08;;;;;;;;;0.00;0.00;;;;;24.59;52.17;100815.88;5123496;27;45333;-61
2021/06/16 05:10:34;;;;;;;;;0.00;0.00;;;;;24.62;52.20;100818.16;5124195;27;45165;-60
2021/06/16 05:12:59;;;;;;;;;0.00;0.00;;;;;24.64;52.05;100818.75;5109530;27;45159;-60
2021/06/16 05:15:25;;;;;;;;;0.00;0.00;;;;;24.66;51.59;100813.97;5124672;27;45152;-59
2021/06/16 05:17:50;;;;;;;;;0.00;0.00;;;;;24.67;51.94;100812.97;5123411;27;46053;-60
2021/06/16 05:20:16;;;;;;;;;0.00;0.00;;;;;24.66;52.07;100807.78;5124062;27;45423;-61
2021/06/16 05:22:42;;;;;;;;;0.00;0.00;;;;;24.67;52.60;100807.59;5124011;27;45262;-60
2021/06/16 05:25:10;;;;;;;;;0.00;0.00;;;;;24.69;52.37;100808.22;5124185;27;45270;-60
2021/06/16 05:27:36;;;;;;;;;0.00;0.00;;;;;24.69;52.18;100815.44;5123033;27;46551;-60
2021/06/16 05:30:06;;;;;;;;;0.00;0.00;;;;;24.72;52.40;100809.63;5123514;27;45407;-65
2021/06/16 05:32:32;;;;;;;;;0.00;0.00;;;;;24.75;52.27;100811.88;5123271;27;45520;-59
2021/06/16 05:34:57;;;;;;;;;0.00;0.00;;;;;24.77;51.99;100807.13;5123572;27;45268;-61
2021/06/16 05:37:23;;;;;;;;;0.00;0.00;;;;;24.80;52.57;100806.72;5123120;27;46898;-61
2021/06/16 05:39:48;;;;;;;;;0.00;0.00;;;;;24.81;52.56;100810.22;5123649;27;45452;-61
2021/06/16 05:42:14;;;;;;;;;0.00;0.00;;;;;24.83;51.98;100813.53;5122561;27;45576;-61
2021/06/16 05:44:39;;;;;;;;;0.00;0.00;;;;;24.86;52.07;100813.09;5123687;27;45585;-60
2021/06/16 05:47:05;;;;;;;;;0.00;0.00;;;;;24.84;52.24;100810.66;5123146;27;45296;-60
2021/06/16 05:49:31;;;;;;;;;0.00;0.00;;;;;24.83;52.20;100811.66;5123203;27;45316;-60
2021/06/16 05:51:56;;;;;;;;;0.00;0.00;;;;;24.83;52.63;100814.34;5123143;27;45246;-60
2021/06/16 05:54:22;;;;;;;;;0.00;0.00;;;;;24.90;52.48;100807.13;5123281;27;45487;-60
2021/06/16 05:56:47;;;;;;;;;0.00;0.00;;;;;24.99;51.81;100802.34;5123063;27;45977;-60
2021/06/16 05:59:13;;;;;;;;;0.00;0.00;;;;;25.08;52.37;100795.66;5122629;27;45163;-59
2021/06/16 06:01:38;;;;;;;;;0.00;0.00;;;;;25.24;50.99;100809.69;5122878;27;45223;-60
2021/06/16 06:04:07;;;;;;;;;0.00;0.00;;;;;25.42;50.64;100800.91;5116099;27;45482;-60
2021/06/16 06:06:37;;;;;;;;;0.00;0.00;;;;;25.53;50.78;100802.91;5102041;27;47062;-62
2021/06/16 06:09:07;;;;;;;;;0.00;0.00;;;;;25.65;49.65;100803.84;5102192;27;45259;-59
2021/06/16 06:11:34;;;;;;;;;0.00;0.00;;;;;25.84;50.05;100802.06;5116005;27;45406;-63
2021/06/16 06:14:01;;;;;;;;;0.00;0.00;;;;;26.21;48.93;100796.81;5111627;27;45336;-60
2021/06/16 06:16:26;;;;;;;;;0.00;0.00;;;;;26.73;48.14;100791.97;5104280;27;47074;-60
2021/06/16 06:18:52;;;;;;;;;0.00;0.00;;;;;27.20;46.57;100792.22;5121895;27;45314;-60
2021/06/16 06:21:17;;;;;;;;;0.00;0.00;;;;;27.66;46.05;100789.94;5122200;27;45231;-61
2021/06/16 06:23:42;;;;;;;;;0.00;0.00;;;;;28.12;45.05;100795.66;5121973;27;45431;-61
2021/06/16 06:26:08;;;;;;;;;0.00;0.00;;;;;28.59;44.36;100792.97;5121552;27;46462;-61
2021/06/16 06:28:34;;;;;;;;;0.00;0.00;;;;;29.03;43.49;100796.88;5122172;27;45293;-62
2021/06/16 06:30:59;;;;;;;;;0.00;0.00;;;;;29.38;42.84;100795.09;5122148;27;45329;-60
2021/06/16 06:33:24;;;;;;;;;0.00;0.00;;;;;29.63;41.71;100792.00;5122134;27;45457;-61
2021/06/16 06:35:50;;;;;;;;;0.00;0.00;;;;;30.01;41.57;100796.75;5121383;27;46263;-60
2021/06/16 06:38:15;;;;;;;;;4.00;4.00;;;;;30.27;40.41;100787.09;5122013;27;45232;-60
2021/06/16 06:40:41;;;;;;;;;0.00;0.00;;;;;30.38;39.60;100793.50;5103371;27;45294;-61
2021/06/16 06:43:07;;;;;;;;;0.25;0.25;;;;;30.39;39.68;100791.63;5121927;27;45221;-62
2021/06/16 06:45:33;;;;;;;;;0.00;0.00;;;;;30.50;39.49;100789.88;5121082;27;45511;-60
2021/06/16 06:47:58;;;;;;;;;0.00;0.00;;;;;30.57;39.67;100775.06;5122114;27;45400;-61
2021/06/16 06:50:24;;;;;;;;;0.00;0.00;;;;;30.68;39.42;100781.44;5121527;27;45311;-60
2021/06/16 06:52:49;;;;;;;;;0.00;0.00;;;;;30.80;38.66;100782.16;5122172;27;45364;-59
2021/06/16 06:55:16;;;;;;;;;0.00;0.00;;;;;31.05;38.80;100787.06;5121543;27;46169;-60
2021/06/16 06:57:42;;;;;;;;;0.00;0.00;;;;;31.35;37.96;100788.47;5121935;27;45344;-61
2021/06/16 07:00:10;;;;;;;;;0.00;0.00;;;;;31.56;37.87;100784.06;5121287;27;45318;-60
2021/06/16 07:02:36;;;;;;;;;0.00;0.00;;;;;31.67;37.25;100784.97;5121839;27;45337;-61
2021/06/16 07:05:02;;;;;;;;;0.00;0.00;;;;;31.79;37.19;100779.34;5105262;27;46087;-61
2021/06/16 07:07:27;;;;;;;;;0.00;0.00;;;;;31.95;37.13;100774.88;5100726;27;45329;-61
2021/06/16 07:09:53;;;;;;;;;0.00;0.00;;;;;32.16;36.80;100767.69;5116719;27;45267;-60
2021/06/16 07:12:18;;;;;;;;;0.75;0.00;;;;;32.42;36.59;100769.50;5112887;27;45415;-61
2021/06/16 07:14:45;;;;;;;;;0.00;0.00;;;;;32.70;35.54;100770.19;5116123;27;45500;-61
2021/06/16 07:17:11;;;;;;;;;0.00;0.00;;;;;32.90;35.17;100767.53;5121978;27;45379;-61
2021/06/16 07:19:36;;;;;;;;;0.00;0.00;;;;;33.16;34.94;100769.53;5121609;27;45337;-60
2021/06/16 07:22:02;;;;;;;;;0.00;0.00;;;;;33.42;34.53;100767.66;5121989;27;45435;-60
2021/06/16 07:24:28;;;;;;;;;0.00;0.00;;;;;33.71;34.18;100776.13;5121598;27;45191;-61
2021/06/16 07:26:53;;;;;;;;;0.00;0.00;;;;;33.84;33.64;100770.09;5122200;27;45316;-59
2021/06/16 07:29:19;;;;;;;;;0.00;0.00;;;;;34.06;33.22;100771.72;5121105;27;45229;-60
2021/06/16 07:31:44;;;;;;;;;0.00;0.00;;;;;34.23;32.92;100772.25;5121533;27;45159;-60
2021/06/16 07:34:09;;;;;;;;;0.00;0.00;;;;;34.36;32.29;100773.56;5119626;27;46607;-61
2021/06/16 07:36:35;;;;;;;;;0.00;0.00;;;;;34.41;31.96;100772.75;5123192;27;45289;-60
2021/06/16 07:39:00;;;;;;;;;0.00;0.00;;;;;34.49;31.56;100769.44;5123862;27;45255;-60
2021/06/16 07:41:26;;;;;;;;;0.00;0.00;;;;;34.66;31.19;100760.94;5104390;27;45218;-61
2021/06/16 07:43:51;;;;;;;;;0.00;0.00;;;;;34.78;31.36;100753.25;5103750;27;46300;-60
2021/06/16 07:46:17;;;;;;;;;0.00;0.00;;;;;35.08;30.31;100756.91;5111359;27;45261;-59
2021/06/16 07:48:43;;;;;;;;;0.00;0.00;;;;;35.28;30.54;100758.72;5124785;27;45341;-60
2021/06/16 07:51:08;;;;;;;;;0.50;0.50;;;;;35.54;29.70;100759.31;5124612;27;45308;-61
2021/06/16 07:53:33;;;;;;;;;0.00;0.00;;;;;35.74;29.45;100745.50;5124416;27;46281;-60
2021/06/16 07:55:59;;;;;;;;;0.00;0.00;;;;;36.05;29.33;100742.47;5124327;27;45291;-60
2021/06/16 07:58:25;;;;;;;;;0.00;0.00;;;;;36.44;29.31;100737.91;5124439;27;45385;-60
2021/06/16 08:00:51;;;;;;;;;0.00;0.00;;;;;36.61;28.45;100749.25;5124165;27;45293;-61
2021/06/16 08:03:16;;;;;;;;;0.00;0.00;;;;;36.66;28.23;100745.63;5123575;27;46192;-60
2021/06/16 08:05:42;;;;;;;;;0.00;0.00;;;;;36.85;28.37;100754.66;5114613;27;45259;-60
2021/06/16 08:08:07;;;;;;;;;0.00;0.00;;;;;36.96;28.00;100747.13;5124905;27;45844;-60
2021/06/16 08:10:32;;;;;;;;;0.00;0.00;;;;;37.08;27.76;100744.72;5125152;27;45281;-60
2021/06/16 08:12:58;;;;;;;;;0.00;0.00;;;;;37.24;27.38;100739.88;5110483;27;47118;-61
2021/06/16 08:15:24;;;;;;;;;0.00;0.00;;;;;37.38;26.76;100733.63;5124713;27;45667;-60
2021/06/16 08:17:51;;;;;;;;;0.00;0.00;;;;;37.51;27.13;100736.38;5106224;27;45320;-60
2021/06/16 08:20:18;;;;;;;;;0.00;0.00;;;;;37.81;26.40;100736.19;5124359;27;45410;-59
2021/06/16 08:22:43;;;;;;;;;0.00;0.00;;;;;37.98;25.27;100739.13;5123547;27;45368;-61
2021/06/16 08:25:11;;;;;;;;;0.00;0.00;;;;;38.12;26.03;100723.53;5123433;27;45312;-60
2021/06/16 08:27:38;;;;;;;;;0.00;0.00;;;;;38.41;25.70;100727.06;5124113;27;45330;-59
2021/06/16 08:30:04;;;;;;;;;0.00;0.00;;;;;38.76;25.84;100734.53;5105557;27;45328;-60
2021/06/16 08:32:29;;;;;;;;;0.00;0.00;;;;;38.97;24.77;100725.88;5123817;27;46567;-59
2021/06/16 08:34:55;;;;;;;;;0.00;0.00;;;;;39.23;24.66;100728.00;5123772;27;45341;-60
2021/06/16 08:37:20;;;;;;;;;0.00;0.00;;;;;39.53;24.00;100723.69;5123648;27;45306;-61
2021/06/16 08:39:45;;;;;;;;;0.00;0.00;;;;;40.09;24.47;100721.34;5124538;27;45543;-60
2021/06/16 08:42:11;;;;;;;;;0.75;0.75;;;;;40.72;22.58;100722.84;5123629;27;45364;-60
2021/06/16 08:44:38;;;;;;;;;0.00;0.00;;;;;41.33;21.91;100720.06;5123693;27;45238;-60
2021/06/16 08:47:04;;;;;;;;;0.00;0.00;;;;;41.99;21.21;100718.91;5122796;27;45505;-61
2021/06/16 08:49:29;;;;;;;;;0.25;0.25;;;;;43.15;20.91;100714.66;5124057;27;45336;-60
2021/06/16 08:51:57;;;;;;;;;0.00;0.00;;;;;44.66;19.51;100710.47;5123524;27;46682;-60
2021/06/16 08:54:23;;;;;;;;;0.25;0.25;;;;;46.29;17.59;100723.47;5123550;27;45444;-59
2021/06/16 08:56:48;;;;;;;;;0.00;0.00;;;;;47.28;16.74;100711.19;5123762;27;45319;-61
2021/06/16 08:59:13;;;;;;;;;0.00;0.00;;;;;48.35;15.16;100712.91;5123925;27;45350;-61
2021/06/16 09:01:39;;;;;;;;;0.00;0.00;;;;;49.38;14.29;100706.94;5123883;27;46272;-60
2021/06/16 09:04:04;;;;;;;;;0.50;0.50;;;;;49.87;13.45;100705.72;5116896;27;45238;-61
2021/06/16 09:06:31;;;;;;;;;0.00;0.00;;;;;50.56;13.16;100711.69;5120670;27;45391;-60
2021/06/16 09:09:08;;;;;;;;;0.00;0.00;;;;;51.49;12.52;100706.31;5123924;27;45530;-60
2021/06/16 09:11:40;;;;;;;;;0.00;0.00;;;;;52.46;12.00;100709.72;5122461;27;45403;-61
2021/06/16 09:14:12;;;;;;;;;0.00;0.00;;;;;53.03;11.23;100717.03;5123372;27;45259;-60
2021/06/16 09:16:38;;;;;;;;;0.00;0.00;;;;;53.65;11.09;100703.31;5123728;27;45309;-60
2021/06/16 09:19:17;;;;;;;;;0.00;0.00;;;;;54.21;10.34;100706.72;5123718;27;45423;-60
2021/06/16 09:21:42;;;;;;;;;0.00;0.00;;;;;55.08;10.15;100707.19;5122781;27;47189;-61
2021/06/16 09:24:08;;;;;;;;;0.00;0.00;;;;;55.74;9.51;100699.22;5122816;27;45340;-59
2021/06/16 09:26:39;;;;;;;;;0.00;0.00;;;;;55.84;9.21;100686.13;5123216;27;45286;-61
2021/06/16 09:29:05;;;;;;;;;0.00;0.00;;;;;56.09;9.72;100688.47;5123274;27;45309;-60
2021/06/16 09:31:43;;;;;;;;;0.00;0.00;;;;;56.37;8.55;100691.94;5122743;27;45424;-61
2021/06/16 09:34:13;;;;;;;;;0.00;0.00;;;;;55.86;9.27;100684.50;5122446;27;45381;-60
2021/06/16 09:36:54;;;;;;;;;0.00;0.00;;;;;55.45;8.91;100688.47;5123373;27;45445;-61
2021/06/16 09:39:23;;;;;;;;;6.00;3.00;;;;;54.54;8.76;100683.84;5121711;27;45485;-61
2021/06/16 09:41:53;;;;;;;;;0.00;0.00;;;;;53.00;10.40;100680.59;5122732;27;45601;-60
2021/06/16 09:44:47;;;;;;;;;0.00;0.00;;;;;52.03;11.13;100678.22;5122402;27;45522;-60
2021/06/16 09:47:19;;;;;;;;;0.00;0.00;;;;;51.10;11.37;100679.13;5122107;27;45340;-61
2021/06/16 09:49:48;;;;;;;;;0.75;0.75;;;;;50.94;11.87;100671.09;5122816;27;45316;-60
2021/06/16 09:52:37;;;;;;;;;0.00;0.00;;;;;51.07;12.23;100675.09;5122241;27;45557;-61
2021/06/16 09:55:21;;;;;;;;;0.00;0.00;;;;;51.31;11.94;100669.94;5121937;27;45403;-62
2021/06/16 09:58:09;;;;;;;;;0.00;0.00;;;;;51.35;11.18;100664.34;5122126;27;45325;-61
2021/06/16 10:00:40;;;;;;;;;0.00;0.00;;;;;50.93;11.68;100674.28;5121901;27;45427;-60
2021/06/16 10:03:06;;;;;;;;;0.00;0.00;;;;;50.44;12.27;100674.53;5103311;27;47657;-60
2021/06/16 10:05:32;;;;;;;;;0.00;0.00;;;;;50.48;12.16;100666.97;5083907;27;45361;-61
2021/06/16 10:07:57;;;;;;;;;0.00;0.00;;;;;50.75;12.19;100663.06;5102343;27;45317;-60
2021/06/16 10:10:23;;;;;;;;;0.00;0.00;;;;;51.07;11.66;100671.50;5121297;27;45433;-61
2021/06/16 10:12:50;;;;;;;;;0.00;0.00;;;;;51.42;11.44;100667.91;5108686;27;46245;-60
2021/06/16 10:15:18;;;;;;;;;0.00;0.00;;;;;52.51;11.07;100668.47;5120960;27;45282;-61
2021/06/16 10:17:44;;;;;;;;;0.00;0.00;;;;;53.98;10.85;100667.25;5122075;27;45308;-61
2021/06/16 10:20:12;;;;;;;;;0.00;0.00;;;;;55.19;9.72;100681.66;5122197;27;45530;-61
2021/06/16 10:22:37;;;;;;;;;0.00;0.00;;;;;55.89;8.48;100661.06;5121041;27;46960;-61
2021/06/16 10:25:04;;;;;;;;;0.00;0.00;;;;;56.44;9.15;100660.75;5121189;27;45255;-61
2021/06/16 10:27:36;;;;;;;;;0.00;0.00;;;;;56.53;7.29;100662.94;5120743;27;45152;-61
2021/06/16 10:30:09;;;;;;;;;0.00;0.00;;;;;54.56;8.52;100662.50;5119849;27;45596;-61
2021/06/16 10:32:37;;;;;;;;;0.00;0.00;;;;;53.91;9.53;100656.91;5119912;27;46728;-61
2021/06/16 10:35:03;;;;;;;;;0.00;0.00;;;;;53.39;9.12;100657.03;5119700;27;45371;-62
2021/06/16 10:37:33;;;;;;;;;0.50;0.50;;;;;53.70;8.65;100647.50;5121221;27;45211;-61
2021/06/16 10:40:16;;;;;;;;;0.00;0.00;;;;;52.84;8.97;100647.47;5121413;27;45393;-61
2021/06/16 10:43:06;;;;;;;;;4.00;0.00;;;;;51.06;10.24;100634.34;5119295;27;45500;-62
2021/06/16 10:45:31;;;;;;;;;0.00;0.00;;;;;49.48;10.96;100636.47;5120298;27;45392;-61
2021/06/16 10:48:06;;;;;;;;;0.00;0.00;;;;;48.50;12.31;100626.75;5120611;27;45768;-60
2021/06/16 10:50:51;;;;;;;;;0.00;0.00;;;;;47.95;12.58;100625.22;5120163;27;45520;-61
2021/06/16 10:53:24;;;;;;;;;0.00;0.00;;;;;47.70;13.06;100610.97;5120635;27;46291;-60
2021/06/16 10:55:53;;;;;;;;;0.00;0.00;;;;;47.47;13.71;100617.34;5120638;27;45258;-61
2021/06/16 10:58:30;;;;;;;;;0.00;0.00;;;;;47.18;13.43;100616.09;5120870;27;45219;-61
2021/06/16 11:01:11;;;;;;;;;0.00;0.00;;;;;46.73;13.67;100611.28;5120560;27;45177;-62
2021/06/16 11:03:46;;;;;;;;;1.00;0.00;;;;;46.68;13.70;100614.34;5116050;27;45617;-61
2021/06/16 11:06:37;;;;;;;;;0.00;0.00;;;;;46.76;13.78;100611.34;5100961;27;45262;-60
2021/06/16 11:09:14;;;;;;;;;0.00;0.00;;;;;47.01;13.91;100608.22;5108519;27;45410;-62
2021/06/16 11:12:01;;;;;;;;;1.00;1.00;;;;;47.11;13.84;100615.97;5103643;27;45395;-61
2021/06/16 11:14:32;;;;;;;;;0.00;0.00;;;;;46.58;13.96;100601.88;5116177;27;46762;-61
2021/06/16 11:16:59;;;;;;;;;0.00;0.00;;;;;46.10;14.17;100607.63;5124000;27;45408;-61
2021/06/16 11:19:35;;;;;;;;;0.00;0.00;;;;;45.83;14.45;100609.38;5124533;27;45331;-62
2021/06/16 11:22:21;;;;;;;;;0.00;0.00;;;;;45.37;15.01;100592.47;5125498;27;45374;-61
2021/06/16 11:25:15;;;;;;;;;0.00;0.00;;;;;44.90;15.26;100599.56;5106417;27;46597;-61
2021/06/16 11:28:20;;;;;;;;;0.00;0.00;;;;;44.08;14.89;100586.16;5124400;27;45375;-60
2021/06/16 11:30:50;;;;;;;;;1.00;1.00;;;;;43.18;15.89;100591.59;5021087;28;45392;-60
2021/06/16 11:33:16;;;;;;;;;0.00;0.00;;;;;42.40;16.65;100588.44;5109000;27;45450;-61